Time;durP1;ratioP1;P1;durP2;ratioP2;P2;SDS_P1;SDS_P2;PMS_P1;PMS_P2;Temp;Humidity;BMP_temperature;BMP_pressure;BME280_temperature;BME280_humidity;BME280_pressure;Samples;Min_cycle;Max_cycle;Signal;HPM_P1;HPM_P2
2021/11/16 00:01:38;;;;;;;27.20;14.38;;;;;;;7.59;80.34;101957.97;5054627;28;20052;-62
2021/11/16 00:04:07;;;;;;;27.58;12.85;;;;;;;7.39;81.77;101953.16;5052114;28;20069;-62
2021/11/16 00:06:36;;;;;;;27.27;13.02;;;;;;;7.29;81.79;101944.03;5053814;28;20642;-61
2021/11/16 00:09:04;;;;;;;30.23;13.75;;;;;;;7.40;82.28;101940.28;5052955;28;20048;-61
2021/11/16 00:11:33;;;;;;;32.78;14.48;;;;;;;7.60;81.39;101943.19;5031860;28;20045;-62
2021/11/16 00:14:00;;;;;;;27.17;13.65;;;;;;;7.79;81.29;101942.47;5033560;28;20053;-61
2021/11/16 00:16:27;;;;;;;30.55;14.00;;;;;;;7.81;80.13;101940.31;5033118;28;20045;-62
2021/11/16 00:19:06;;;;;;;26.67;13.90;;;;;;;7.66;80.63;101942.13;5039129;28;20049;-61
2021/11/16 00:21:35;;;;;;;28.52;13.52;;;;;;;7.58;81.35;101934.41;5064522;28;20574;-61
2021/11/16 00:24:09;;;;;;;27.15;13.85;;;;;;;7.53;81.45;101937.13;5049725;28;20060;-61
2021/11/16 00:26:36;;;;;;;24.15;12.15;;;;;;;7.59;81.44;101922.34;5053504;28;20049;-61
2021/11/16 00:29:04;;;;;;;26.17;12.35;;;;;;;7.77;80.56;101935.63;5054832;28;20045;-61
2021/11/16 00:31:32;;;;;;;24.95;12.13;;;;;;;7.63;81.03;101926.22;5053352;28;20052;-61
2021/11/16 00:34:00;;;;;;;24.73;11.75;;;;;;;7.85;80.11;101916.75;5051365;28;20057;-61
2021/11/16 00:36:28;;;;;;;25.48;12.40;;;;;;;7.97;79.94;101913.78;5052255;28;20060;-62
2021/11/16 00:38:56;;;;;;;26.88;12.38;;;;;;;7.82;80.50;101913.72;5057713;28;20048;-62
2021/11/16 00:41:24;;;;;;;24.83;11.88;;;;;;;7.86;79.96;101910.16;5073424;28;20044;-62
2021/11/16 00:43:51;;;;;;;30.80;12.68;;;;;;;7.82;80.15;101900.00;5074440;28;20540;-61
2021/11/16 00:46:19;;;;;;;24.92;12.88;;;;;;;7.88;80.03;101898.91;5059908;28;20041;-60
2021/11/16 00:48:46;;;;;;;24.52;12.32;;;;;;;7.83;80.69;101898.88;5034390;28;20056;-61
2021/11/16 00:51:14;;;;;;;25.38;12.48;;;;;;;7.36;81.96;101892.56;5033374;28;20057;-61
2021/11/16 00:53:42;;;;;;;28.10;13.27;;;;;;;7.19;83.42;101894.63;5032988;28;20057;-59
2021/11/16 00:56:10;;;;;;;28.95;13.10;;;;;;;7.22;83.82;101894.13;5032985;28;20057;-61
2021/11/16 00:58:37;;;;;;;28.13;12.00;;;;;;;7.17;84.22;101886.69;5034425;28;20061;-61
2021/11/16 01:01:05;;;;;;;26.23;12.07;;;;;;;7.53;83.24;101877.59;5034385;28;20052;-60
2021/11/16 01:03:33;;;;;;;26.98;12.55;;;;;;;7.87;81.33;101872.59;5034139;28;20049;-61
2021/11/16 01:06:00;;;;;;;27.45;12.45;;;;;;;7.70;81.46;101875.53;5034151;28;20045;-62
2021/11/16 01:08:28;;;;;;;31.50;13.63;;;;;;;7.34;82.71;101873.66;5036949;28;20120;-61
2021/11/16 01:10:56;;;;;;;31.70;13.38;;;;;;;7.47;82.79;101875.94;5042111;28;20049;-61
2021/11/16 01:13:25;;;;;;;24.80;12.85;;;;;;;7.79;81.19;101878.59;5057803;28;20056;-60
2021/11/16 01:15:52;;;;;;;26.40;11.93;;;;;;;7.88;81.02;101869.56;5056097;28;20052;-61
2021/11/16 01:18:22;;;;;;;28.65;13.60;;;;;;;8.03;79.76;101874.31;5056978;28;20083;-61
2021/11/16 01:20:50;;;;;;;32.37;13.20;;;;;;;7.99;80.10;101876.75;5056478;28;20045;-61
2021/11/16 01:23:18;;;;;;;30.10;13.55;;;;;;;7.90;80.58;101875.63;5056254;28;20068;-61
2021/11/16 01:25:47;;;;;;;31.42;13.85;;;;;;;7.84;80.86;101876.72;5057409;28;20060;-61
2021/11/16 01:28:18;;;;;;;29.08;12.70;;;;;;;8.06;80.20;101871.03;5057514;28;20060;-61
2021/11/16 01:30:48;;;;;;;26.98;12.48;;;;;;;7.88;80.36;101871.47;5051646;28;20049;-61
2021/11/16 01:33:40;;;;;;;26.98;13.68;;;;;;;7.99;79.53;101875.94;5036427;28;20076;-61
2021/11/16 01:36:10;;;;;;;28.60;12.70;;;;;;;7.94;79.21;101875.91;5022541;28;20124;-61
2021/11/16 01:38:38;;;;;;;27.40;12.23;;;;;;;8.04;79.11;101877.88;5040989;28;20052;-60
2021/11/16 01:41:06;;;;;;;21.90;10.85;;;;;;;7.74;79.10;101879.38;5077439;28;20059;-60
2021/11/16 01:43:34;;;;;;;20.77;10.40;;;;;;;7.64;79.83;101878.50;5077562;28;20048;-64
2021/11/16 01:46:05;;;;;;;20.95;9.77;;;;;;;7.72;78.77;101880.75;5076861;28;20071;-61
2021/11/16 01:48:34;;;;;;;22.77;11.48;;;;;;;7.85;78.32;101883.81;5043186;28;20045;-62
2021/11/16 01:51:01;;;;;;;24.83;10.65;;;;;;;7.89;78.25;101886.88;5077067;28;20499;-60
2021/11/16 01:53:29;;;;;;;23.15;10.50;;;;;;;8.04;77.92;101886.13;5076074;28;20064;-60
2021/11/16 01:55:57;;;;;;;23.83;11.82;;;;;;;7.99;78.49;101887.75;5076577;28;20079;-61
2021/11/16 01:58:25;;;;;;;26.73;12.15;;;;;;;7.89;78.97;101873.16;5076814;28;20098;-61
2021/11/16 02:00:53;;;;;;;23.95;11.52;;;;;;;8.00;78.48;101881.16;5075550;28;20415;-62
2021/11/16 02:03:21;;;;;;;27.77;11.98;;;;;;;7.96;78.31;101877.31;5075648;28;20052;-60
2021/11/16 02:05:52;;;;;;;22.92;11.63;;;;;;;8.10;77.77;101877.63;5076448;28;20048;-60
2021/11/16 02:08:20;;;;;;;25.25;11.20;;;;;;;7.98;77.69;101871.56;5075459;28;20614;-61
2021/11/16 02:10:50;;;;;;;24.40;11.85;;;;;;;8.12;77.53;101872.69;5076716;28;20044;-61
2021/11/16 02:13:19;;;;;;;;;;;;;;;7.74;77.91;101867.59;5076132;28;20063;-62
2021/11/16 02:15:50;;;;;;;18.25;9.05;;;;;;;7.81;77.20;101868.19;5076529;28;19996;-61
2021/11/16 02:18:18;;;;;;;16.50;8.25;;;;;;;7.98;76.36;101864.13;5076816;28;20166;-61
2021/11/16 02:20:47;;;;;;;17.10;9.00;;;;;;;7.95;76.47;101867.41;5076570;28;20051;-62
2021/11/16 02:23:15;;;;;;;19.48;9.80;;;;;;;7.87;76.44;101864.34;5057638;28;20060;-63
2021/11/16 02:25:44;;;;;;;18.65;9.75;;;;;;;8.09;75.88;101859.50;5075012;28;20063;-61
2021/11/16 02:28:14;;;;;;;20.13;9.67;;;;;;;7.97;76.02;101870.72;5075074;28;20060;-61
2021/11/16 02:30:42;;;;;;;22.35;10.43;;;;;;;7.63;77.62;101860.41;5074999;28;20049;-60
2021/11/16 02:33:09;;;;;;;20.77;9.98;;;;;;;7.85;78.26;101863.78;5076594;28;20048;-62
2021/11/16 02:35:38;;;;;;;23.98;11.30;;;;;;;7.64;78.75;101856.56;5076022;28;20472;-60
2021/11/16 02:38:05;;;;;;;24.80;11.48;;;;;;;7.57;79.85;101862.28;5076602;28;20056;-61
2021/11/16 02:40:33;;;;;;;20.38;10.95;;;;;;;7.71;79.26;101862.63;5058637;28;20064;-61
2021/11/16 02:43:00;;;;;;;20.92;10.63;;;;;;;7.66;79.48;101860.69;5056408;28;20059;-61
2021/11/16 02:45:27;;;;;;;31.15;13.32;;;;;;;7.66;79.93;101865.34;5055999;28;20059;-63
2021/11/16 02:47:55;;;;;;;23.33;11.25;;;;;;;7.63;79.18;101858.50;5056445;28;20472;-61
2021/11/16 02:50:23;;;;;;;23.58;10.70;;;;;;;7.78;79.15;101857.72;5053745;28;20056;-61
2021/11/16 02:52:51;;;;;;;24.08;10.93;;;;;;;7.49;79.22;101853.75;5056069;28;20053;-60
2021/11/16 02:55:18;;;;;;;22.23;10.77;;;;;;;7.46;80.16;101852.34;5054136;28;20048;-60
2021/11/16 02:57:45;;;;;;;21.55;10.20;;;;;;;7.85;78.54;101852.81;5056076;28;20049;-61
2021/11/16 03:00:15;;;;;;;19.40;9.68;;;;;;;7.96;76.59;101849.03;5054517;28;20045;-60
2021/11/16 03:02:43;;;;;;;;;;;;;;;7.57;78.02;101847.75;5021826;28;20044;-61
2021/11/16 03:05:11;;;;;;;22.83;10.07;;;;;;;7.65;78.37;101841.78;5055473;28;20296;-61
2021/11/16 03:07:45;;;;;;;22.90;10.30;;;;;;;7.71;78.63;101852.50;5055316;28;20065;-60
2021/11/16 03:10:14;;;;;;;21.42;10.10;;;;;;;7.74;78.28;101849.22;5055423;28;20060;-61
2021/11/16 03:12:42;;;;;;;15.32;7.93;;;;;;;7.83;76.47;101849.50;5054472;28;20385;-61
2021/11/16 03:15:09;;;;;;;18.33;9.55;;;;;;;7.99;75.27;101848.50;5054084;28;20048;-61
2021/11/16 03:17:37;;;;;;;24.52;10.95;;;;;;;8.07;76.07;101848.00;5054348;28;20045;-62
2021/11/16 03:20:15;;;;;;;24.80;9.85;;;;;;;7.99;76.15;101846.59;5053935;28;20480;-62
2021/11/16 03:22:49;;;;;;;21.67;9.38;;;;;;;7.82;76.32;101848.72;5037542;28;20057;-61
2021/11/16 03:25:19;;;;;;;17.23;8.13;;;;;;;7.95;75.43;101848.22;5053859;28;20591;-62
2021/11/16 03:27:51;;;;;;;;;;;;;;;7.65;74.62;101850.81;5055929;28;20064;-61
2021/11/16 03:30:19;;;;;;;17.70;8.40;;;;;;;7.85;75.27;101844.59;5053823;28;19920;-60
2021/11/16 03:32:46;;;;;;;19.67;9.00;;;;;;;8.07;74.89;101850.75;5048014;28;20057;-60
2021/11/16 03:35:14;;;;;;;18.20;9.23;;;;;;;8.04;74.22;101847.72;5053222;28;20056;-60
2021/11/16 03:37:46;;;;;;;18.13;8.90;;;;;;;8.04;74.13;101848.50;5053765;28;20049;-61
2021/11/16 03:40:15;;;;;;;18.55;9.02;;;;;;;8.11;74.01;101848.28;5070125;28;20040;-61
2021/11/16 03:42:46;;;;;;;19.05;8.65;;;;;;;8.12;73.47;101847.16;5075203;28;20143;-61
2021/11/16 03:45:16;;;;;;;17.45;8.45;;;;;;;7.98;73.18;101847.66;5075076;28;20055;-61
2021/11/16 03:47:44;;;;;;;;;;;;;;;7.90;73.73;101847.34;5075240;28;20072;-61
2021/11/16 03:50:15;;;;;;;18.30;8.03;;;;;;;8.10;73.02;101852.94;5072424;28;19935;-61
2021/11/16 03:52:45;;;;;;;15.90;8.20;;;;;;;7.77;73.69;101856.09;5075038;28;20056;-61
2021/11/16 03:55:12;;;;;;;16.13;8.02;;;;;;;7.69;73.87;101853.84;5075024;28;20048;-61
2021/11/16 03:57:40;;;;;;;17.88;8.57;;;;;;;7.65;74.42;101856.28;5073481;28;20503;-60
2021/11/16 04:00:13;;;;;;;15.50;7.43;;;;;;;7.99;73.48;101849.31;5074903;28;20056;-61
2021/11/16 04:02:40;;;;;;;17.20;8.43;;;;;;;8.13;72.61;101852.38;5074839;28;20056;-62
2021/11/16 04:05:08;;;;;;;15.73;8.25;;;;;;;8.10;73.07;101852.09;5074230;28;20157;-61
2021/11/16 04:07:35;;;;;;;21.02;9.50;;;;;;;8.11;73.04;101853.78;5074687;28;20061;-62
2021/11/16 04:10:11;;;;;;;17.08;8.55;;;;;;;8.23;72.64;101849.66;5072841;28;20057;-61
2021/11/16 04:12:39;;;;;;;18.60;8.95;;;;;;;7.91;73.11;101843.53;5073623;28;20052;-60
2021/11/16 04:15:08;;;;;;;18.55;9.27;;;;;;;7.68;74.13;101847.56;5074937;28;20048;-62
2021/11/16 04:17:36;;;;;;;22.92;10.35;;;;;;;7.85;73.96;101842.69;5073464;28;20052;-60
2021/11/16 04:20:06;;;;;;;19.13;9.10;;;;;;;7.83;74.02;101853.09;5074776;28;20053;-59
2021/11/16 04:22:35;;;;;;;20.80;9.90;;;;;;;7.89;74.80;101849.28;5057088;28;20407;-61
2021/11/16 04:25:04;;;;;;;22.95;10.75;;;;;;;7.77;74.87;101848.69;5074675;28;20057;-62
2021/11/16 04:27:31;;;;;;;19.08;9.18;;;;;;;7.55;75.44;101839.00;5074868;28;20059;-62
2021/11/16 04:29:58;;;;;;;23.20;9.52;;;;;;;7.72;75.56;101848.66;5074356;28;20064;-61
2021/11/16 04:32:26;;;;;;;22.27;10.57;;;;;;;7.74;75.82;101840.19;5074397;28;20041;-62
2021/11/16 04:34:53;;;;;;;24.42;11.00;;;;;;;7.77;76.04;101839.63;5074423;28;20052;-61
2021/11/16 04:37:20;;;;;;;27.08;11.32;;;;;;;7.97;75.89;101842.44;5074645;28;20053;-61
2021/11/16 04:39:48;;;;;;;22.55;11.13;;;;;;;8.21;75.21;101848.31;5061347;28;20409;-60
2021/11/16 04:42:15;;;;;;;24.65;11.60;;;;;;;8.20;75.66;101846.63;5036138;28;20052;-60
2021/11/16 04:44:44;;;;;;;31.90;14.13;;;;;;;7.51;79.68;101843.34;5054499;28;20662;-61
2021/11/16 04:47:14;;;;;;;39.10;14.68;;;;;;;7.22;81.72;101850.28;5057273;28;20049;-61
2021/11/16 04:49:45;;;;;;;33.15;15.20;;;;;;;7.14;82.74;101853.50;5056397;28;20080;-61
2021/11/16 04:52:44;;;;;;;33.90;14.75;;;;;;;7.03;83.50;101855.34;5058440;28;20052;-62
2021/11/16 05:03:09;;;;;;;32.53;14.68;;;;;;;7.09;83.52;101862.53;5047833;28;20076;-62
2021/11/16 05:05:37;;;;;;;33.53;14.68;;;;;;;7.06;83.92;101864.97;5057956;28;20124;-60
2021/11/16 05:08:04;;;;;;;36.22;14.40;;;;;;;7.11;84.16;101856.78;5056460;28;20067;-61
2021/11/16 05:10:32;;;;;;;31.60;13.63;;;;;;;7.12;83.69;101859.25;5056674;28;20049;-62
2021/11/16 05:13:00;;;;;;;31.40;14.05;;;;;;;7.20;83.06;101869.72;5057856;28;20542;-62
2021/11/16 05:15:27;;;;;;;32.95;14.50;;;;;;;7.21;82.88;101863.16;5056225;28;20053;-61
2021/11/16 05:17:55;;;;;;;28.70;12.57;;;;;;;7.12;83.54;101856.50;5057888;28;20484;-61
2021/11/16 05:20:22;;;;;;;30.48;13.00;;;;;;;7.12;82.98;101853.78;5056462;28;20404;-61
2021/11/16 05:22:52;;;;;;;26.10;12.27;;;;;;;7.30;82.42;101860.75;5057786;28;20056;-62
2021/11/16 05:25:20;;;;;;;27.92;13.18;;;;;;;7.10;81.99;101853.19;5056188;28;20064;-61
2021/11/16 05:27:48;;;;;;;28.55;12.85;;;;;;;7.05;83.45;101863.28;5055373;28;20416;-61
2021/11/16 05:30:16;;;;;;;34.08;13.60;;;;;;;7.24;82.44;101859.03;5057477;28;20060;-61
2021/11/16 05:32:44;;;;;;;25.35;11.38;;;;;;;7.38;81.47;101855.59;5051118;28;20050;-61
2021/11/16 05:35:12;;;;;;;27.95;12.25;;;;;;;7.25;81.19;101860.72;5036626;28;20053;-60
2021/11/16 05:37:41;;;;;;;26.98;12.18;;;;;;;7.51;80.56;101862.53;5035889;28;20049;-61
2021/11/16 05:40:09;;;;;;;20.67;9.75;;;;;;;7.53;78.53;101854.88;5065860;28;20448;-63
2021/11/16 05:42:36;;;;;;;29.90;11.00;;;;;;;7.73;78.80;101860.44;5077305;28;20052;-61
2021/11/16 05:45:04;;;;;;;21.52;9.52;;;;;;;7.42;78.34;101869.59;5077275;28;20059;-60
2021/11/16 05:47:32;;;;;;;21.20;10.15;;;;;;;7.65;78.62;101864.50;5076278;28;20063;-61
2021/11/16 05:50:00;;;;;;;21.85;10.20;;;;;;;7.66;78.10;101866.19;5076998;28;20063;-61
2021/11/16 05:52:27;;;;;;;22.10;10.32;;;;;;;7.59;78.92;101867.50;5077325;28;20048;-61
2021/11/16 05:54:55;;;;;;;22.73;10.27;;;;;;;7.41;78.57;101863.28;5070760;28;20068;-61
2021/11/16 05:57:22;;;;;;;22.90;10.30;;;;;;;7.66;78.69;101868.09;5035853;28;20061;-63
2021/11/16 05:59:49;;;;;;;28.40;12.43;;;;;;;7.65;80.09;101863.72;5037211;28;20397;-61
2021/11/16 06:02:17;;;;;;;31.05;13.52;;;;;;;7.89;79.43;101867.66;5053148;28;20072;-60
2021/11/16 06:04:44;;;;;;;31.42;14.40;;;;;;;7.37;82.35;101864.09;5076897;28;20048;-60
2021/11/16 06:07:13;;;;;;;34.10;15.23;;;;;;;7.83;81.62;101868.72;5067749;28;20056;-63
2021/11/16 06:09:42;;;;;;;30.73;13.83;;;;;;;7.76;81.35;101868.13;5055022;28;20715;-62
2021/11/16 06:12:11;;;;;;;32.08;14.63;;;;;;;7.48;82.68;101866.63;5054469;28;20300;-65
2021/11/16 06:14:39;;;;;;;33.72;14.90;;;;;;;7.43;83.65;101876.72;5057475;28;20056;-63
2021/11/16 06:17:06;;;;;;;35.15;16.40;;;;;;;7.51;83.40;101866.09;5056455;28;20527;-62
2021/11/16 06:19:35;;;;;;;33.05;15.10;;;;;;;7.59;83.76;101865.59;5056703;28;20053;-62
2021/11/16 06:22:07;;;;;;;39.22;16.00;;;;;;;7.58;84.15;101868.59;5056950;28;20052;-63
2021/11/16 06:24:34;;;;;;;36.15;15.13;;;;;;;7.54;84.59;101864.72;5057223;28;20053;-63
2021/11/16 06:27:02;;;;;;;35.08;15.77;;;;;;;7.63;84.05;101863.97;5055586;28;20060;-62
2021/11/16 06:29:29;;;;;;;36.92;15.43;;;;;;;7.33;85.72;101860.22;5055416;28;20048;-63
2021/11/16 06:31:56;;;;;;;36.67;15.38;;;;;;;7.54;85.52;101871.06;5055180;28;20048;-62
2021/11/16 06:34:25;;;;;;;34.47;15.48;;;;;;;7.46;85.58;101881.69;5051395;28;20040;-63
2021/11/16 06:36:52;;;;;;;38.35;16.35;;;;;;;7.54;85.58;101878.44;5076406;28;20068;-61
2021/11/16 06:39:20;;;;;;;36.20;15.43;;;;;;;7.66;85.33;101881.78;5068743;28;20045;-60
2021/11/16 06:41:49;;;;;;;35.08;14.82;;;;;;;7.81;84.54;101879.16;5056362;28;20427;-59
2021/11/16 06:44:19;;;;;;;36.50;15.23;;;;;;;7.61;85.62;101876.28;5056354;28;20053;-60
2021/11/16 06:46:47;;;;;;;34.67;14.95;;;;;;;7.63;85.16;101874.94;5065997;28;20055;-60
2021/11/16 06:49:15;;;;;;;35.85;15.75;;;;;;;7.66;85.74;101881.78;5066889;28;20053;-60
2021/11/16 06:51:44;;;;;;;37.35;15.70;;;;;;;7.59;86.21;101881.22;5054822;28;20045;-65
2021/11/16 06:54:18;;;;;;;33.58;15.05;;;;;;;7.58;85.44;101869.41;5055980;28;20068;-62
2021/11/16 06:56:49;;;;;;;35.95;14.55;;;;;;;7.49;86.95;101876.50;5053539;28;20476;-62
2021/11/16 06:59:18;;;;;;;36.13;15.00;;;;;;;7.66;86.39;101871.66;5054859;28;20052;-61
2021/11/16 07:01:45;;;;;;;32.72;14.25;;;;;;;7.61;85.27;101870.81;5045985;28;20052;-61
2021/11/16 07:04:14;;;;;;;26.75;13.30;;;;;;;7.58;84.29;101880.38;5051351;28;20072;-62
2021/11/16 07:06:47;;;;;;;28.65;12.85;;;;;;;7.82;82.99;101880.78;5055455;28;20045;-60
2021/11/16 07:09:17;;;;;;;24.15;10.52;;;;;;;7.82;81.13;101889.03;5047898;28;20068;-60
2021/11/16 07:11:49;;;;;;;21.17;10.20;;;;;;;8.07;80.50;101880.91;5050220;28;20055;-62
2021/11/16 07:14:20;;;;;;;25.23;11.70;;;;;;;7.60;80.68;101883.69;5067384;28;20455;-61
2021/11/16 07:16:53;;;;;;;22.92;11.23;;;;;;;7.57;81.67;101894.34;5036536;28;20057;-62
2021/11/16 07:19:38;;;;;;;27.15;11.98;;;;;;;7.56;82.44;101892.72;5067204;28;20049;-61
2021/11/16 07:22:26;;;;;;;26.55;12.35;;;;;;;7.69;82.81;101887.56;5049888;28;20040;-60
2021/11/16 07:24:58;;;;;;;22.60;11.63;;;;;;;7.78;81.61;101883.25;5037748;28;20049;-61
2021/11/16 07:27:44;;;;;;;29.50;12.40;;;;;;;7.73;81.54;101888.72;5052610;28;20064;-60
2021/11/16 07:30:14;;;;;;;26.55;12.10;;;;;;;7.83;81.22;101880.53;5037265;28;20503;-59
2021/11/16 07:32:53;;;;;;;27.33;12.93;;;;;;;7.88;81.01;101883.28;5049996;28;20480;-61
2021/11/16 07:35:29;;;;;;;25.30;12.45;;;;;;;7.56;82.24;101887.22;5053598;28;20041;-62
2021/11/16 07:38:00;;;;;;;25.27;12.52;;;;;;;7.68;81.87;101899.66;5054352;28;20056;-60
2021/11/16 07:40:29;;;;;;;25.42;12.73;;;;;;;7.50;82.36;101894.59;5053023;28;20045;-62
2021/11/16 07:43:07;;;;;;;25.67;11.95;;;;;;;7.63;81.41;101883.16;5050904;28;20056;-61
2021/11/16 07:45:40;;;;;;;27.25;13.07;;;;;;;7.37;82.11;101886.84;5049640;28;20050;-61
2021/11/16 07:48:10;;;;;;;27.50;12.88;;;;;;;7.41;82.67;101885.22;5047356;28;20049;-61
2021/11/16 07:50:40;;;;;;;32.97;14.25;;;;;;;7.72;81.83;101887.03;5040302;28;20053;-61
2021/11/16 07:53:38;;;;;;;23.88;11.18;;;;;;;8.02;79.11;101891.84;5051720;28;20068;-60
2021/11/16 07:56:09;;;;;;;28.30;13.07;;;;;;;8.08;79.47;101888.03;5046999;28;20061;-60
2021/11/16 07:58:47;;;;;;;28.75;11.20;;;;;;;8.35;80.29;101893.41;5052716;28;20064;-63
2021/11/16 08:01:57;;;;;;;25.73;11.32;;;;;;;8.60;79.32;101880.53;5051864;28;20052;-54
2021/11/16 08:04:26;;;;;;;25.83;12.07;;;;;;;8.82;78.09;101872.06;5053964;28;20068;-60
2021/11/16 08:14:42;;;;;;;24.88;11.32;;;;;;;9.33;73.20;101890.19;5066728;28;20049;-61
2021/11/16 08:17:10;;;;;;;22.73;11.40;;;;;;;8.65;73.85;101886.03;5035852;28;20077;-61
2021/11/16 08:19:38;;;;;;;25.15;11.88;;;;;;;8.76;74.52;101890.47;5041120;28;20061;-61
2021/11/16 08:22:14;;;;;;;23.27;11.07;;;;;;;8.76;74.58;101895.13;5065591;28;20048;-61
2021/11/16 08:24:45;;;;;;;24.13;11.20;;;;;;;8.89;74.01;101891.84;5074509;28;20488;-62
2021/11/16 08:27:16;;;;;;;25.50;11.45;;;;;;;8.38;74.56;101899.16;5044944;28;20128;-62
2021/11/16 08:29:47;;;;;;;22.73;10.90;;;;;;;7.80;76.61;101891.19;5044843;28;20056;-61
2021/11/16 08:32:20;;;;;;;24.20;11.98;;;;;;;7.72;77.83;101891.72;5042216;28;20055;-66
2021/11/16 08:34:54;;;;;;;22.90;10.98;;;;;;;8.29;77.85;101887.06;5049849;28;20460;-61
2021/11/16 08:37:23;;;;;;;26.00;11.45;;;;;;;8.68;76.26;101884.69;5039111;28;20064;-60
2021/11/16 08:39:56;;;;;;;24.20;11.50;;;;;;;8.69;74.82;101880.81;5060808;28;20067;-61
2021/11/16 08:42:35;;;;;;;24.05;11.05;;;;;;;8.83;74.33;101874.53;5042500;28;20057;-60
2021/11/16 08:45:16;;;;;;;25.58;11.88;;;;;;;8.99;73.54;101872.63;5043636;28;20053;-63
2021/11/16 08:47:55;;;;;;;22.65;11.48;;;;;;;9.15;73.39;101878.94;5067657;28;20064;-62
2021/11/16 08:50:30;;;;;;;19.67;10.82;;;;;;;9.00;72.54;101863.25;5024690;28;20489;-61
2021/11/16 08:52:59;;;;;;;21.30;10.45;;;;;;;9.15;72.03;101863.28;5041830;28;20041;-61
2021/11/16 08:55:30;;;;;;;19.55;9.88;;;;;;;9.31;71.14;101862.13;5038167;28;20057;-65
2021/11/16 08:58:06;;;;;;;19.90;9.50;;;;;;;9.56;71.23;101864.00;5051791;28;20064;-62
2021/11/16 09:00:41;;;;;;;19.95;10.85;;;;;;;9.56;69.67;101866.75;5053589;28;20045;-61
2021/11/16 09:03:15;;;;;;;21.52;11.65;;;;;;;9.63;68.96;101864.53;5038457;28;20052;-61
2021/11/16 09:05:45;;;;;;;16.63;8.75;;;;;;;9.45;68.29;101868.72;5040179;28;20052;-61
2021/11/16 09:08:15;;;;;;;19.98;9.88;;;;;;;9.32;68.24;101872.03;5083108;28;20053;-61
2021/11/16 09:10:44;;;;;;;17.03;7.87;;;;;;;9.36;69.20;101875.06;5052710;28;20048;-63
2021/11/16 09:13:13;;;;;;;18.83;8.77;;;;;;;9.54;68.95;101875.28;5024856;28;20311;-61
2021/11/16 09:15:46;;;;;;;16.02;7.93;;;;;;;9.60;67.36;101871.44;5047338;28;20060;-62
2021/11/16 09:18:29;;;;;;;15.85;8.57;;;;;;;9.58;67.67;101865.41;5055978;28;20056;-60
2021/11/16 09:21:09;;;;;;;16.58;8.10;;;;;;;9.83;66.95;101851.53;5049459;28;20539;-61
2021/11/16 09:23:43;;;;;;;22.08;8.13;;;;;;;9.76;65.96;101851.00;5049671;28;20057;-61
2021/11/16 09:26:25;;;;;;;24.27;8.45;;;;;;;9.66;66.72;101855.75;5042785;28;20050;-61
2021/11/16 09:28:58;;;;;;;23.42;8.40;;;;;;;9.85;66.50;101845.78;5037114;28;20083;-61
2021/11/16 09:31:33;;;;;;;26.33;9.40;;;;;;;10.02;65.79;101835.25;5036737;28;20080;-62
2021/11/16 09:34:07;;;;;;;22.50;10.77;;;;;;;10.14;65.74;101844.84;5057004;28;20048;-62
2021/11/16 09:36:37;;;;;;;21.48;8.27;;;;;;;10.17;65.29;101840.69;5056743;28;20508;-63
2021/11/16 09:39:11;;;;;;;;;;;;;;;9.89;64.94;101835.84;5057763;28;20135;-61
2021/11/16 09:41:44;;;;;;;24.00;9.23;;;;;;;9.93;65.33;101831.44;5053314;28;20019;-62
2021/11/16 09:44:14;;;;;;;21.75;9.07;;;;;;;10.17;65.40;101835.19;5038131;28;20049;-62
2021/11/16 09:46:43;;;;;;;;;;;;;;;10.15;64.99;101831.91;5043637;28;20048;-62
2021/11/16 09:49:12;;;;;;;18.08;9.82;;;;;;;9.97;65.16;101832.53;5055128;28;19935;-62
2021/11/16 09:51:41;;;;;;;20.35;9.25;;;;;;;9.89;65.61;101827.59;5044335;28;20057;-62
2021/11/16 09:54:10;;;;;;;16.42;8.90;;;;;;;10.11;65.92;101830.84;5019774;28;20141;-63
2021/11/16 09:56:38;;;;;;;15.95;8.63;;;;;;;9.91;64.63;101837.22;5026347;28;20044;-64
2021/11/16 09:59:05;;;;;;;19.88;8.73;;;;;;;9.92;65.07;101825.09;5055684;28;20056;-63
2021/11/16 10:01:37;;;;;;;20.50;9.40;;;;;;;9.69;65.21;101833.19;5049921;28;20412;-62
2021/11/16 10:04:10;;;;;;;18.63;9.15;;;;;;;9.53;65.83;101831.56;5078714;28;20060;-63
2021/11/16 10:06:37;;;;;;;21.48;9.32;;;;;;;9.09;66.86;101834.97;5071918;28;20064;-63
2021/11/16 10:09:06;;;;;;;16.58;8.30;;;;;;;9.56;66.96;101834.59;5056304;28;20053;-62
2021/11/16 10:11:34;;;;;;;18.33;8.43;;;;;;;9.82;66.55;101833.41;5040867;28;20398;-62
2021/11/16 10:14:01;;;;;;;19.52;9.25;;;;;;;9.73;65.83;101828.75;5048515;28;20048;-63
2021/11/16 10:16:33;;;;;;;19.83;9.23;;;;;;;9.74;66.12;101836.75;5043826;28;20045;-63
2021/11/16 10:19:00;;;;;;;17.85;9.18;;;;;;;9.81;66.00;101839.19;5040185;28;20408;-62
2021/11/16 10:21:30;;;;;;;24.23;10.23;;;;;;;9.51;66.76;101837.34;5052852;28;20057;-63
2021/11/16 10:23:59;;;;;;;25.93;11.27;;;;;;;9.84;67.14;101839.44;5043145;28;20041;-63
2021/11/16 10:26:33;;;;;;;23.40;11.23;;;;;;;9.78;66.81;101834.25;5038292;28;20519;-62
2021/11/16 10:29:02;;;;;;;21.27;10.55;;;;;;;9.83;67.36;101843.28;5046331;28;20064;-63
2021/11/16 10:31:32;;;;;;;21.85;9.40;;;;;;;9.72;66.59;101838.94;5042370;28;20489;-62
2021/11/16 10:34:00;;;;;;;21.70;8.65;;;;;;;9.22;67.44;101838.25;5046951;28;20053;-63
2021/11/16 10:36:28;;;;;;;18.73;9.88;;;;;;;9.37;67.06;101839.03;5054831;28;20053;-62
2021/11/16 10:38:59;;;;;;;24.60;9.32;;;;;;;9.86;66.64;101834.50;5044412;28;20119;-63
2021/11/16 10:41:29;;;;;;;20.05;8.27;;;;;;;10.04;66.02;101833.03;5049588;28;20049;-63
2021/11/16 10:44:00;;;;;;;23.70;10.48;;;;;;;9.81;66.52;101836.44;5078343;28;20063;-63
2021/11/16 10:46:30;;;;;;;21.55;12.15;;;;;;;9.66;68.32;101836.50;5046757;28;20053;-63
2021/11/16 10:49:01;;;;;;;26.02;12.93;;;;;;;9.57;69.73;101832.66;5035996;28;20049;-63
2021/11/16 10:51:31;;;;;;;25.55;12.88;;;;;;;9.24;70.00;101839.59;5044111;28;20065;-62
2021/11/16 10:53:59;;;;;;;28.40;12.00;;;;;;;9.79;69.99;101833.97;5038114;28;20058;-62
2021/11/16 10:56:32;;;;;;;33.03;13.43;;;;;;;9.62;69.58;101833.50;5053931;28;20496;-63
2021/11/16 10:59:12;;;;;;;24.70;12.85;;;;;;;9.48;70.73;101832.44;5038317;28;20523;-63
2021/11/16 11:01:47;;;;;;;;;;;;;;;9.53;70.94;101832.41;5043139;28;20068;-62
2021/11/16 11:04:17;;;;;;;27.40;12.68;;;;;;;9.86;71.10;101837.25;5042470;28;19939;-64
2021/11/16 11:06:49;;;;;;;31.77;13.02;;;;;;;9.13;72.00;101840.72;5037004;28;20484;-63
2021/11/16 11:09:26;;;;;;;32.00;13.57;;;;;;;8.74;73.82;101829.47;5035170;28;20061;-62
2021/11/16 11:11:55;;;;;;;37.63;15.25;;;;;;;8.64;74.24;101840.47;5042434;28;20045;-62
2021/11/16 11:14:31;;;;;;;35.97;15.00;;;;;;;9.10;73.50;101835.75;5046623;28;20052;-62
2021/11/16 11:17:03;;;;;;;33.17;14.50;;;;;;;9.21;73.41;101823.66;5041448;28;20053;-62
2021/11/16 11:19:34;;;;;;;27.30;13.50;;;;;;;9.00;72.92;101822.88;5041108;28;20052;-62
2021/11/16 11:22:22;;;;;;;26.92;13.30;;;;;;;9.00;73.14;101822.88;5050103;28;20048;-62
2021/11/16 11:25:03;;;;;;;27.65;13.95;;;;;;;9.15;72.25;101811.06;5033992;28;20110;-63
2021/11/16 11:27:41;;;;;;;27.00;12.75;;;;;;;9.35;72.27;101801.91;5033326;28;20516;-62
2021/11/16 11:30:27;;;;;;;35.65;13.80;;;;;;;8.66;73.27;101804.47;5035075;28;20077;-61
2021/11/16 11:32:54;;;;;;;24.70;12.25;;;;;;;9.00;72.31;101805.56;5025937;28;20049;-62
2021/11/16 11:35:27;;;;;;;25.25;12.40;;;;;;;8.80;73.11;101805.59;5033450;28;20050;-62
2021/11/16 11:37:57;;;;;;;26.98;13.10;;;;;;;8.82;73.51;101797.91;5034865;28;20053;-62
2021/11/16 11:41:17;;;;;;;29.88;14.27;;;;;;;8.75;74.59;101792.66;5041159;28;20048;-63
2021/11/16 11:43:47;;;;;;;32.85;13.27;;;;;;;9.21;73.09;101779.69;5038193;28;20061;-63
2021/11/16 11:46:15;;;;;;;28.83;13.10;;;;;;;9.31;72.16;101781.59;5036496;28;20045;-63
2021/11/16 11:48:42;;;;;;;27.23;13.18;;;;;;;9.12;72.64;101786.84;5035596;28;20051;-62
2021/11/16 11:51:14;;;;;;;30.98;15.20;;;;;;;9.07;73.38;101784.94;5037286;28;20532;-66
2021/11/16 11:53:42;;;;;;;30.77;13.85;;;;;;;9.56;71.99;101784.25;5066699;28;20064;-62